Time;durP1;ratioP1;P1;durP2;ratioP2;P2;SDS_P1;SDS_P2;PMS_P1;PMS_P2;Temp;Humidity;BMP_temperature;BMP_pressure;BME280_temperature;BME280_humidity;BME280_pressure;Samples;Min_cycle;Max_cycle;Signal;HPM_P1;HPM_P2
2023/06/05 00:01:18;;;;;;;;;;;;;;;10.96;100.00;100251.78;5033242;28;897;-56
2023/06/05 00:03:45;;;;;;;;;;;;;;;11.03;100.00;100252.56;5033303;28;819;-56
2023/06/05 00:06:12;;;;;;;;;;;;;;;11.08;100.00;100258.91;5032317;28;828;-56
2023/06/05 00:08:38;;;;;;;;;;;;;;;11.09;100.00;100254.94;5033188;28;816;-56
2023/06/05 00:11:05;;;;;;;;;;;;;;;11.05;100.00;100260.47;5033469;28;895;-55
2023/06/05 00:13:31;;;;;;;;;;;;;;;10.96;100.00;100252.56;5033128;28;804;-56
2023/06/05 00:15:58;;;;;;;;;;;;;;;10.87;100.00;100248.59;5032676;28;1475;-56
2023/06/05 00:18:26;;;;;;;;;;;;;;;10.83;100.00;100238.31;5032962;28;1938;-56
2023/06/05 00:20:52;;;;;;;;;;;;;;;10.74;100.00;100232.41;5032864;28;859;-56
2023/06/05 00:23:19;;;;;;;;;;;;;;;10.61;100.00;100231.97;5032945;28;820;-55
2023/06/05 00:25:46;;;;;;;;;;;;;;;10.51;100.00;100226.44;5032712;28;848;-56
2023/06/05 00:28:13;;;;;;;;;;;;;;;10.40;100.00;100227.19;5032925;28;820;-56
2023/06/05 00:30:40;;;;;;;;;;;;;;;10.27;100.00;100219.63;5032715;28;872;-56
2023/06/05 00:33:07;;;;;;;;;;;;;;;10.20;100.00;100217.66;5032761;28;843;-56
2023/06/05 00:35:33;;;;;;;;;;;;;;;10.22;100.00;100218.06;5032591;28;914;-55
2023/06/05 00:38:00;;;;;;;;;;;;;;;10.22;100.00;100221.59;5032629;28;875;-56
2023/06/05 00:40:26;;;;;;;;;;;;;;;10.15;100.00;100220.78;5032518;28;1886;-56
2023/06/05 00:42:53;;;;;;;;;;;;;;;10.14;100.00;100230.25;5032418;28;824;-57
2023/06/05 00:45:20;;;;;;;;;;;;;;;10.08;100.00;100226.28;5031212;28;1160;-55
2023/06/05 00:47:46;;;;;;;;;;;;;;;10.06;100.00;100228.63;5032700;28;822;-56
2023/06/05 00:50:15;;;;;;;;;;;;;;;10.06;100.00;100237.72;5032378;28;812;-56
2023/06/05 00:52:42;;;;;;;;;;;;;;;10.11;100.00;100229.03;5032339;28;808;-56
2023/06/05 00:55:08;;;;;;;;;;;;;;;10.26;100.00;100220.81;5032146;28;871;-56
2023/06/05 00:57:38;;;;;;;;;;;;;;;10.50;100.00;100222.09;5032246;28;918;-56
2023/06/05 01:00:08;;;;;;;;;;;;;;;10.72;100.00;100220.16;5032102;28;1878;-56
2023/06/05 01:02:37;;;;;;;;;;;;;;;10.90;100.00;100220.16;5032141;28;816;-56
2023/06/05 01:05:04;;;;;;;;;;;;;;;11.07;100.00;100221.34;5032086;28;824;-56
2023/06/05 01:07:32;;;;;;;;;;;;;;;11.17;100.00;100220.56;5032248;28;875;-57
2023/06/05 01:10:00;;;;;;;;;;;;;;;11.21;100.00;100218.56;5031892;28;897;-56
2023/06/05 01:12:31;;;;;;;;;;;;;;;11.21;100.00;100224.13;5031994;28;843;-56
2023/06/05 01:14:58;;;;;;;;;;;;;;;11.24;100.00;100220.53;5031674;28;1293;-56
2023/06/05 01:17:28;;;;;;;;;;;;;;;11.19;100.00;100223.72;5030503;28;1523;-56
2023/06/05 01:20:06;;;;;;;;;;;;;;;11.08;100.00;100215.44;5031838;28;1909;-55
2023/06/05 01:22:37;;;;;;;;;;;;;;;11.02;100.00;100225.31;5031868;28;851;-56
2023/06/05 01:25:07;;;;;;;;;;;;;;;10.96;100.00;100215.81;5031609;28;934;-56
2023/06/05 01:27:48;;;;;;;;;;;;;;;10.91;100.00;100217.00;5031810;28;803;-56
2023/06/05 01:30:19;;;;;;;;;;;;;;;10.86;100.00;100217.41;5031764;28;844;-56
2023/06/05 01:32:53;;;;;;;;;;;;;;;10.79;100.00;100217.38;5031765;28;894;-56
2023/06/05 01:35:27;;;;;;;;;;;;;;;10.72;100.00;100217.38;5031853;28;851;-56
2023/06/05 01:37:55;;;;;;;;;;;;;;;10.65;100.00;100215.41;5031747;28;827;-56
2023/06/05 01:40:23;;;;;;;;;;;;;;;10.56;100.00;100215.78;5031753;28;1941;-55
2023/06/05 01:42:50;;;;;;;;;;;;;;;10.53;100.00;100218.53;5031439;28;823;-56
2023/06/05 01:45:17;;;;;;;;;;;;;;;10.50;100.00;100220.13;5031582;28;808;-56
2023/06/05 01:47:48;;;;;;;;;;;;;;;10.50;100.00;100222.09;5031510;28;812;-56
2023/06/05 01:50:14;;;;;;;;;;;;;;;10.47;100.00;100225.63;5031752;28;927;-57
2023/06/05 01:52:42;;;;;;;;;;;;;;;10.44;100.00;100227.22;5031449;28;852;-57
2023/06/05 01:55:14;;;;;;;;;;;;;;;10.45;100.00;100216.94;5031528;28;812;-56
2023/06/05 01:57:41;;;;;;;;;;;;;;;10.46;100.00;100224.06;5031370;28;884;-56
2023/06/05 02:00:12;;;;;;;;;;;;;;;10.45;100.00;100214.97;5031590;28;1886;-56
2023/06/05 02:02:43;;;;;;;;;;;;;;;10.39;100.00;100213.75;5031506;28;911;-56
2023/06/05 02:05:10;;;;;;;;;;;;;;;10.28;100.00;100207.41;5031435;28;840;-56
2023/06/05 02:07:40;;;;;;;;;;;;;;;10.10;100.00;100210.13;5031256;28;881;-56
2023/06/05 02:10:10;;;;;;;;;;;;;;;9.93;100.00;100212.41;5031439;28;931;-56
2023/06/05 02:12:37;;;;;;;;;;;;;;;9.89;100.00;100208.06;5031246;28;871;-56
2023/06/05 02:15:04;;;;;;;;;;;;;;;9.83;100.00;100213.16;5030919;28;1227;-56
2023/06/05 02:17:31;;;;;;;;;;;;;;;9.81;100.00;100219.06;5031235;28;863;-56
2023/06/05 02:19:58;;;;;;;;;;;;;;;9.74;100.00;100221.78;5031129;28;1918;-56
2023/06/05 02:22:24;;;;;;;;;;;;;;;9.65;100.00;100215.03;5031129;28;875;-56
2023/06/05 02:24:54;;;;;;;;;;;;;;;9.54;100.00;100220.50;5031098;28;907;-56
2023/06/05 02:27:24;;;;;;;;;;;;;;;9.44;100.00;100219.25;5031129;28;824;-56
2023/06/05 02:29:52;;;;;;;;;;;;;;;9.34;100.00;100219.97;5034159;28;1063;-56
2023/06/05 02:32:19;;;;;;;;;;;;;;;9.29;100.00;100220.34;5034942;28;868;-56
2023/06/05 02:34:47;;;;;;;;;;;;;;;9.30;100.00;100216.38;5034962;28;828;-56
2023/06/05 02:37:13;;;;;;;;;;;;;;;9.31;100.00;100216.00;5034835;28;864;-56
2023/06/05 02:39:39;;;;;;;;;;;;;;;9.38;100.00;100218.81;5034783;28;1985;-55
2023/06/05 02:42:08;;;;;;;;;;;;;;;9.49;100.00;100224.38;5034808;28;824;-55
2023/06/05 02:44:34;;;;;;;;;;;;;;;9.45;100.00;100222.78;5034748;28;828;-55
2023/06/05 02:47:01;;;;;;;;;;;;;;;9.45;100.00;100220.03;5034712;28;878;-55
2023/06/05 02:49:28;;;;;;;;;;;;;;;9.43;100.00;100230.66;5034583;28;879;-54
2023/06/05 02:51:55;;;;;;;;;;;;;;;9.45;100.00;100231.06;5034640;28;840;-55
2023/06/05 02:54:21;;;;;;;;;;;;;;;9.40;100.00;100229.47;5034445;28;824;-56
2023/06/05 02:56:49;;;;;;;;;;;;;;;9.35;100.00;100227.88;5034505;28;903;-56
2023/06/05 02:59:15;;;;;;;;;;;;;;;9.34;100.00;100231.78;5034412;28;1964;-55
2023/06/05 03:01:43;;;;;;;;;;;;;;;9.32;100.00;100231.38;5034472;28;844;-55
2023/06/05 03:04:10;;;;;;;;;;;;;;;9.31;100.00;100240.06;5034326;28;884;-56
2023/06/05 03:06:37;;;;;;;;;;;;;;;9.24;100.00;100231.72;5034407;28;918;-56
2023/06/05 03:09:04;;;;;;;;;;;;;;;9.19;100.00;100225.38;5034248;28;926;-56
2023/06/05 03:11:30;;;;;;;;;;;;;;;9.19;100.00;100227.34;5034184;28;816;-55
2023/06/05 03:13:57;;;;;;;;;;;;;;;9.22;100.00;100228.53;5034199;28;874;-55
2023/06/05 03:16:33;;;;;;;;;;;;;;;9.29;100.00;100236.88;5034022;28;1273;-55
2023/06/05 03:19:00;;;;;;;;;;;;;;;9.33;100.00;100229.44;5034078;28;1967;-56
2023/06/05 03:21:27;;;;;;;;;;;;;;;9.39;100.00;100236.97;5034147;28;870;-55
2023/06/05 03:23:53;;;;;;;;;;;;;;;9.47;100.00;100248.03;5033932;28;863;-55
2023/06/05 03:26:22;;;;;;;;;;;;;;;9.52;100.00;100240.19;5033983;28;950;-54
2023/06/05 03:28:49;;;;;;;;;;;;;;;9.58;100.00;100243.38;5034160;28;874;-55
2023/06/05 03:31:15;;;;;;;;;;;;;;;9.65;100.00;100250.91;5033879;28;863;-56
2023/06/05 03:33:42;;;;;;;;;;;;;;;9.74;100.00;100240.31;5032582;28;1192;-56
2023/06/05 03:36:08;;;;;;;;;;;;;;;9.90;100.00;100245.50;5033814;28;871;-56
2023/06/05 03:38:35;;;;;;;;;;;;;;;10.11;100.00;100233.78;5033704;28;1890;-56
2023/06/05 03:41:02;;;;;;;;;;;;;;;10.38;100.00;100237.06;5032591;28;827;-56
2023/06/05 03:43:30;;;;;;;;;;;;;;;10.54;100.00;100236.69;5033815;28;872;-55
2023/06/05 03:45:58;;;;;;;;;;;;;;;10.65;100.00;100243.06;5033650;28;824;-55
2023/06/05 03:48:26;;;;;;;;;;;;;;;10.75;100.00;100241.47;5033651;28;855;-56
2023/06/05 03:50:55;;;;;;;;;;;;;;;10.93;100.00;100249.81;5033592;28;831;-55
2023/06/05 03:53:22;;;;;;;;;;;;;;;11.04;100.00;100248.59;5033374;28;840;-55
2023/06/05 03:55:52;;;;;;;;;;;;;;;11.21;100.00;100243.47;5033482;28;875;-56
2023/06/05 03:58:19;;;;;;;;;;;;;;;11.41;100.00;100241.88;5033299;28;935;-56
2023/06/05 04:00:45;;;;;;;;;;;;;;;11.61;100.00;100247.00;5033595;28;1973;-56
2023/06/05 04:03:12;;;;;;;;;;;;;;;11.88;100.00;100244.56;5033344;28;906;-56
2023/06/05 04:05:39;;;;;;;;;;;;;;;12.19;100.00;100255.94;5033223;28;903;-56
2023/06/05 04:08:06;;;;;;;;;;;;;;;12.41;100.00;100262.94;5033218;28;899;-56
2023/06/05 04:10:33;;;;;;;;;;;;;;;12.58;100.00;100263.25;5033090;28;939;-56
2023/06/05 04:13:00;;;;;;;;;;;;;;;12.68;100.00;100261.63;5033325;28;820;-55
2023/06/05 04:15:27;;;;;;;;;;;;;;;12.76;100.00;100257.59;5032657;28;1424;-56
2023/06/05 04:17:54;;;;;;;;;;;;;;;12.87;100.00;100256.34;5032144;28;840;-56
2023/06/05 04:20:21;;;;;;;;;;;;;;;13.04;100.00;100257.41;5032020;28;1973;-56
2023/06/05 04:22:48;;;;;;;;;;;;;;;13.21;100.00;100254.91;5031897;28;840;-56
2023/06/05 04:25:14;;;;;;;;;;;;;;;13.39;100.00;100263.88;5031860;28;855;-56
2023/06/05 04:27:43;;;;;;;;;;;;;;;13.55;100.00;100270.88;5031973;28;832;-55
2023/06/05 04:30:11;;;;;;;;;;;;;;;13.73;100.00;100262.38;5031835;28;828;-56
2023/06/05 04:32:38;;;;;;;;;;;;;;;13.88;100.00;100275.69;5031783;28;804;-55
2023/06/05 04:35:06;;;;;;;;;;;;;;;13.98;100.00;100274.00;5031937;28;796;-54
2023/06/05 04:37:33;;;;;;;;;;;;;;;14.11;100.00;100273.47;5031998;28;851;-54
2023/06/05 04:40:00;;;;;;;;;;;;;;;14.20;100.00;100277.31;5031915;28;1878;-54
2023/06/05 04:42:26;;;;;;;;;;;;;;;14.35;100.00;100272.38;5031731;28;902;-54
2023/06/05 04:45:03;;;;;;;;;;;;;;;14.52;100.00;100280.91;5031721;28;867;-55
2023/06/05 04:47:31;;;;;;;;;;;;;;;14.75;100.00;100272.66;5031794;28;879;-55
2023/06/05 04:50:05;;;;;;;;;;;;;;;14.95;100.00;100264.38;5031648;28;808;-53
2023/06/05 04:52:35;;;;;;;;;;;;;;;15.15;100.00;100267.28;5030956;28;844;-54
2023/06/05 04:55:03;;;;;;;;;;;;;;;15.36;100.00;100284.81;5031851;28;843;-52
2023/06/05 04:57:30;;;;;;;;;;;;;;;15.55;100.00;100286.09;5031461;28;832;-54
2023/06/05 04:59:57;;;;;;;;;;;;;;;15.77;100.00;100292.09;5031372;28;1951;-54
2023/06/05 05:02:23;;;;;;;;;;;;;;;15.95;100.00;100286.19;5031327;28;870;-55
2023/06/05 05:04:51;;;;;;;;;;;;;;;16.09;100.00;100274.78;5031335;28;836;-54
2023/06/05 05:07:17;;;;;;;;;;;;;;;16.28;100.00;100284.31;5030093;28;1073;-54
2023/06/05 05:09:45;;;;;;;;;;;;;;;16.47;100.00;100286.34;5031352;28;924;-53
2023/06/05 05:12:12;;;;;;;;;;;;;;;16.62;100.00;100283.22;5031302;28;867;-54
2023/06/05 05:14:40;;;;;;;;;;;;;;;16.85;100.00;100283.09;5031183;28;816;-54
2023/06/05 05:17:07;;;;;;;;;;;;;;;17.05;100.00;100294.22;4895026;28;3929206;-54
2023/06/05 05:19:34;;;;;;;;;;;;;;;17.24;100.00;100286.19;5032038;28;1914;-55
2023/06/05 05:22:01;;;;;;;;;;;;;;;17.51;100.00;100281.09;5031746;28;876;-55
2023/06/05 05:24:27;;;;;;;;;;;;;;;17.68;100.00;100284.66;5031852;28;887;-52
2023/06/05 05:26:54;;;;;;;;;;;;;;;17.92;100.00;100282.47;5031804;28;851;-53
2023/06/05 05:29:21;;;;;;;;;;;;;;;18.22;100.00;100288.84;5031704;28;949;-54
2023/06/05 05:31:47;;;;;;;;;;;;;;;18.51;100.00;100288.00;5031595;28;991;-53
2023/06/05 05:34:13;;;;;;;;;;;;;;;18.70;99.53;100287.00;5031703;28;812;-54
2023/06/05 05:36:40;;;;;;;;;;;;;;;18.79;95.31;100286.34;5031653;28;820;-54
2023/06/05 05:39:07;;;;;;;;;;;;;;;18.81;92.64;100280.31;5030261;28;2083;-54
2023/06/05 05:41:35;;;;;;;;;;;;;;;18.96;92.31;100289.84;5031579;28;871;-54
2023/06/05 05:44:01;;;;;;;;;;;;;;;19.18;92.24;100292.72;5031637;28;903;-54
2023/06/05 05:46:28;;;;;;;;;;;;;;;19.50;91.71;100285.28;5031464;28;816;-53
2023/06/05 05:48:54;;;;;;;;;;;;;;;19.53;86.28;100287.19;5031571;28;856;-53
2023/06/05 05:51:21;;;;;;;;;;;;;;;19.44;83.26;100289.88;5031338;28;817;-53
2023/06/05 05:53:47;;;;;;;;;;;;;;;19.52;83.92;100294.00;5031492;28;839;-52
2023/06/05 05:56:14;;;;;;;;;;;;;;;19.92;83.54;100285.81;5031414;28;835;-54
2023/06/05 05:58:42;;;;;;;;;;;;;;;20.75;82.44;100286.38;5031315;28;1953;-54
2023/06/05 06:01:11;;;;;;;;;;;;;;;21.65;78.64;100285.53;5031347;28;851;-52
2023/06/05 06:03:38;;;;;;;;;;;;;;;22.17;70.71;100278.03;5032567;28;923;-53
2023/06/05 06:06:08;;;;;;;;;;;;;;;22.71;65.05;100289.66;5035482;28;845;-54
2023/06/05 06:08:35;;;;;;;;;;;;;;;22.70;59.88;100287.31;5035449;28;883;-55
2023/06/05 06:11:06;;;;;;;;;;;;;;;22.63;59.09;100292.03;5035814;28;943;-53
2023/06/05 06:13:34;;;;;;;;;;;;;;;22.97;58.54;100287.19;5035287;28;839;-52
2023/06/05 06:16:02;;;;;;;;;;;;;;;23.25;58.51;100284.25;5035087;28;1319;-53
2023/06/05 06:18:30;;;;;;;;;;;;;;;23.20;56.54;100284.94;5035557;28;852;-53
2023/06/05 06:20:58;;;;;;;;;;;;;;;22.89;57.13;100285.97;5035228;28;1910;-54
2023/06/05 06:23:24;;;;;;;;;;;;;;;22.68;58.37;100289.81;5035235;28;859;-54
2023/06/05 06:25:51;;;;;;;;;;;;;;;22.78;56.65;100286.50;5035265;28;800;-51
2023/06/05 06:28:19;;;;;;;;;;;;;;;22.82;57.01;100281.47;5035296;28;825;-55
2023/06/05 06:30:46;;;;;;;;;;;;;;;22.88;55.24;100287.25;5035037;28;812;-57
2023/06/05 06:33:13;;;;;;;;;;;;;;;22.94;54.24;100290.22;5034913;28;927;-55
2023/06/05 06:35:40;;;;;;;;;;;;;;;23.38;54.06;100290.44;5034853;28;923;-55
2023/06/05 06:38:07;;;;;;;;;;;;;;;24.07;51.09;100286.97;5034934;28;882;-54
2023/06/05 06:40:34;;;;;;;;;;;;;;;25.21;41.95;100277.06;5034827;28;1890;-55
2023/06/05 06:43:00;;;;;;;;;;;;;;;26.49;39.12;100284.72;5034830;28;870;-54
2023/06/05 06:45:27;;;;;;;;;;;;;;;27.28;33.90;100291.75;5034894;28;910;-56
2023/06/05 06:47:54;;;;;;;;;;;;;;;28.21;33.53;100289.56;5034904;28;799;-55
2023/06/05 06:50:21;;;;;;;;;;;;;;;28.74;31.94;100284.94;5034699;28;928;-55
2023/06/05 06:52:47;;;;;;;;;;;;;;;29.20;30.64;100277.16;5034931;28;800;-55
2023/06/05 06:55:14;;;;;;;;;;;;;;;28.91;30.90;100284.91;5034836;28;816;-55
2023/06/05 06:57:41;;;;;;;;;;;;;;;28.77;30.24;100286.00;5034838;28;927;-56
2023/06/05 07:00:09;;;;;;;;;;;;;;;29.36;30.44;100279.16;5034708;28;1905;-55
2023/06/05 07:02:37;;;;;;;;;;;;;;;29.63;29.02;100282.41;5034513;28;899;-56
2023/06/05 07:05:04;;;;;;;;;;;;;;;29.73;29.09;100260.91;5034476;28;812;-57
2023/06/05 07:07:30;;;;;;;;;;;;;;;29.58;27.64;100286.06;5034413;28;832;-56
2023/06/05 07:09:57;;;;;;;;;;;;;;;29.55;28.72;100278.56;5034635;28;881;-57
2023/06/05 07:12:25;;;;;;;;;;;;;;;29.96;28.02;100267.25;5034335;28;891;-56
2023/06/05 07:14:51;;;;;;;;;;;;;;;30.31;28.41;100275.06;5034110;28;898;-57
2023/06/05 07:17:19;;;;;;;;;;;;;;;30.43;27.61;100275.78;5037912;28;1343;-57
2023/06/05 07:19:45;;;;;;;;;;;;;;;30.27;27.90;100265.22;5033921;28;1918;-56
2023/06/05 07:22:12;;;;;;;;;;;;;;;30.60;28.16;100269.94;5034235;28;883;-56
2023/06/05 07:24:40;;;;;;;;;;;;;;;30.56;27.84;100269.44;5034181;28;887;-56
2023/06/05 07:27:08;;;;;;;;;;;;;;;30.67;27.67;100266.47;5034130;28;819;-55
2023/06/05 07:29:34;;;;;;;;;;;;;;;31.36;27.42;100273.06;5033985;28;861;-55
2023/06/05 07:32:05;;;;;;;;;;;;;;;31.28;27.25;100272.91;5033885;28;879;-55
2023/06/05 07:34:32;;;;;;;;;;;;;;;31.23;27.31;100273.72;5033844;28;887;-53
2023/06/05 07:36:59;;;;;;;;;;;;;;;31.71;26.79;100271.38;5033717;28;935;-50
2023/06/05 07:39:25;;;;;;;;;;;;;;;32.27;27.15;100273.41;5033527;28;1938;-53
2023/06/05 07:41:52;;;;;;;;;;;;;;;32.19;26.41;100263.94;5033756;28;895;-51
2023/06/05 07:44:19;;;;;;;;;;;;;;;32.17;27.12;100263.69;5033696;28;872;-50
2023/06/05 07:46:46;;;;;;;;;;;;;;;32.20;26.85;100271.19;5033918;28;899;-51
2023/06/05 07:49:14;;;;;;;;;;;;;;;32.35;26.99;100271.47;5033504;28;820;-50
2023/06/05 07:51:41;;;;;;;;;;;;;;;32.25;26.75;100266.72;5033482;28;895;-50
2023/06/05 07:54:09;;;;;;;;;;;;;;;31.96;24.65;100272.03;5033606;28;836;-52
2023/06/05 07:56:36;;;;;;;;;;;;;;;31.72;26.88;100270.81;5033322;28;954;-51
2023/06/05 07:59:03;;;;;;;;;;;;;;;31.93;25.62;100268.19;5033260;28;1951;-50
2023/06/05 08:01:31;;;;;;;;;;;;;;;31.48;24.47;100276.59;5033643;28;816;-54
2023/06/05 08:03:56;;;;;;;;;;;;;;;30.83;25.23;100275.41;5033335;28;804;-49
2023/06/05 08:06:24;;;;;;;;;;;;;;;31.16;25.00;100273.56;5033146;28;943;-50
2023/06/05 08:08:51;;;;;;;;;;;;;;;31.25;25.60;100276.03;5033255;28;817;-50
2023/06/05 08:11:18;;;;;;;;;;;;;;;31.12;24.32;100277.47;5033551;28;974;-50
2023/06/05 08:13:45;;;;;;;;;;;;;;;30.95;25.54;100270.41;5033127;28;895;-51
2023/06/05 08:16:11;;;;;;;;;;;;;;;31.10;24.96;100265.81;5032834;28;1432;-50
2023/06/05 08:18:38;;;;;;;;;;;;;;;31.21;26.23;100267.78;5032950;28;813;-50
2023/06/05 08:21:06;;;;;;;;;;;;;;;31.38;25.54;100264.72;5032997;28;1910;-50
2023/06/05 08:23:32;;;;;;;;;;;;;;;31.22;26.12;100269.34;5032824;28;982;-50
2023/06/05 08:25:59;;;;;;;;;;;;;;;31.34;26.43;100270.75;5032057;28;947;-50
2023/06/05 08:28:26;;;;;;;;;;;;;;;32.13;25.87;100268.97;5032857;28;812;-53
2023/06/05 08:30:53;;;;;;;;;;;;;;;31.20;26.09;100271.19;5032817;28;824;-50
2023/06/05 08:33:20;;;;;;;;;;;;;;;31.02;26.66;100267.72;5032800;28;828;-51
2023/06/05 08:35:46;;;;;;;;;;;;;;;30.85;27.03;100269.94;5032727;28;867;-50
2023/06/05 08:38:13;;;;;;;;;;;;;;;30.63;27.23;100266.00;5032713;28;823;-51
2023/06/05 08:40:41;;;;;;;;;;;;;;;30.72;27.07;100265.66;5032535;28;1951;-50
2023/06/05 08:43:08;;;;;;;;;;;;;;;30.65;27.34;100269.09;5032479;28;1269;-50
2023/06/05 08:45:36;;;;;;;;;;;;;;;30.67;26.51;100275.03;5032620;28;867;-50
2023/06/05 08:48:02;;;;;;;;;;;;;;;30.87;26.70;100268.13;5032345;28;902;-53
2023/06/05 08:50:30;;;;;;;;;;;;;;;30.40;26.33;100267.50;5032408;28;824;-50
2023/06/05 08:52:58;;;;;;;;;;;;;;;30.15;27.59;100269.47;5032364;28;982;-50
2023/06/05 08:58:51;;;;;;;;;;;;;;;29.96;26.91;100264.41;5032366;28;595;-53
2023/06/05 09:01:18;;;;;;;;;;;;;;;29.77;26.56;100261.41;5032246;28;894;-51
2023/06/05 09:03:45;;;;;;;;;;;;;;;29.81;27.47;100255.41;5032180;28;808;-50
2023/06/05 09:06:12;;;;;;;;;;;;;;;30.03;27.60;100254.53;5032299;28;836;-49
2023/06/05 09:08:40;;;;;;;;;;;;;;;30.02;27.35;100252.97;5032162;28;823;-48
2023/06/05 09:11:26;;;;;;;;;;;;;;;29.38;26.98;100250.97;5032369;28;1088;-54
2023/06/05 09:13:56;;;;;;;;;;;;;;;29.00;28.41;100258.28;5032069;28;883;-51
2023/06/05 09:16:42;;;;;;;;;;;;;;;28.96;29.85;100250.00;5030460;28;1451;-49
2023/06/05 09:19:08;;;;;;;;;;;;;;;28.75;29.12;100262.97;5030998;28;1902;-49
2023/06/05 09:21:35;;;;;;;;;;;;;;;28.84;30.50;100268.38;5031844;28;866;-50
2023/06/05 09:24:08;;;;;;;;;;;;;;;29.14;29.44;100268.59;5032019;28;828;-51
2023/06/05 09:26:56;;;;;;;;;;;;;;;29.11;29.00;100264.75;5031968;28;884;-52
2023/06/05 09:29:23;;;;;;;;;;;;;;;29.07;27.41;100267.06;5018287;28;1602;-51
2023/06/05 09:31:51;;;;;;;;;;;;;;;28.80;27.78;100277.19;5031757;28;1039;-51
2023/06/05 09:34:25;;;;;;;;;;;;;;;28.81;29.23;100272.28;5031807;28;902;-51
2023/06/05 09:36:54;;;;;;;;;;;;;;;28.96;29.25;100269.94;5031636;28;827;-52
2023/06/05 09:39:22;;;;;;;;;;;;;;;28.85;30.08;100269.94;5031790;28;1885;-54
2023/06/05 10:10:13;;;;;;;;;;;;;;;27.26;30.79;100265.97;5808006;22;1816;-61
2023/06/05 10:12:40;;;;;;;;;;;;;;;27.40;31.50;100263.47;5031393;28;843;-61
2023/06/05 10:15:07;;;;;;;;;;;;;;;27.58;32.60;100259.41;5031309;28;904;-61
2023/06/05 10:17:38;;;;;;;;;;;;;;;27.62;30.90;100259.94;5031352;28;871;-61
2023/06/05 10:20:06;;;;;;;;;;;;;;;27.94;31.60;100249.22;5031160;28;1963;-60
2023/06/05 10:22:33;;;;;;;;;;;;;;;28.12;29.77;100255.69;5031156;28;943;-62
2023/06/05 10:25:03;;;;;;;;;;;;;;;27.99;30.36;100254.13;5031217;28;840;-61
2023/06/05 10:27:43;;;;;;;;;;;;;;;28.07;31.53;100252.31;5031748;28;820;-61
2023/06/05 10:30:09;;;;;;;;;;;;;;;28.16;31.25;100239.94;5031495;28;835;-61
2023/06/05 10:32:47;;;;;;;;;;;;;;;28.17;30.92;100235.81;5029865;28;1764;-62
2023/06/05 10:35:30;;;;;;;;;;;;;;;28.46;31.51;100243.06;5031100;28;850;-61
2023/06/05 10:38:09;;;;;;;;;;;;;;;28.69;30.19;100251.59;5031024;28;864;-63
2023/06/05 10:40:36;;;;;;;;;;;;;;;28.56;29.96;100248.50;5030960;28;1886;-63
2023/06/05 10:43:29;;;;;;;;;;;;;;;28.44;28.03;100247.69;5031082;28;908;-64
2023/06/05 10:45:57;;;;;;;;;;;;;;;28.32;28.26;100240.47;5001248;28;1214;-64
2023/06/05 10:48:45;;;;;;;;;;;;;;;28.21;30.06;100244.88;5031097;28;891;-64
2023/06/05 10:51:30;;;;;;;;;;;;;;;28.27;29.05;100233.47;4993668;28;1446;-63
2023/06/05 10:53:57;;;;;;;;;;;;;;;28.50;28.36;100222.91;5034637;28;835;-64
2023/06/05 10:59:26;;;;;;;;;;;;;;;28.88;27.20;100229.06;5034582;28;1967;-64
2023/06/05 11:02:06;;;;;;;;;;;;;;;29.07;26.89;100230.06;5033361;28;1156;-64
2023/06/05 11:04:47;;;;;;;;;;;;;;;29.19;26.58;100221.50;5034651;28;867;-66
2023/06/05 11:07:24;;;;;;;;;;;;;;;29.55;27.49;100218.75;5033123;28;1179;-64
2023/06/05 11:10:06;;;;;;;;;;;;;;;29.50;26.45;100211.81;5034397;28;997;-63
2023/06/05 11:12:36;;;;;;;;;;;;;;;29.36;26.93;100222.25;5034403;28;946;-63
2023/06/05 11:15:03;;;;;;;;;;;;;;;29.27;26.33;100226.13;5034266;28;883;-64
2023/06/05 11:17:30;;;;;;;;;;;;;;;29.60;26.87;100217.97;5032923;28;824;-63
2023/06/05 11:19:57;;;;;;;;;;;;;;;29.89;26.11;100216.53;5034114;28;1972;-65
2023/06/05 11:22:25;;;;;;;;;;;;;;;30.01;25.47;100223.69;5034139;28;948;-63
2023/06/05 11:25:11;;;;;;;;;;;;;;;30.22;25.31;100226.16;5034331;28;907;-64
2023/06/05 11:27:45;;;;;;;;;;;;;;;29.83;25.25;100227.97;5034055;28;879;-65
2023/06/05 11:30:15;;;;;;;;;;;;;;;29.90;25.82;100223.78;5034040;28;812;-63
2023/06/05 11:32:41;;;;;;;;;;;;;;;30.31;25.23;100217.28;5034111;28;823;-62
2023/06/05 11:35:08;;;;;;;;;;;;;;;30.64;25.02;100206.88;5034242;28;1301;-62
2023/06/05 11:37:36;;;;;;;;;;;;;;;30.50;24.81;100217.38;5034801;28;792;-63
2023/06/05 11:40:09;;;;;;;;;;;;;;;30.56;25.21;100205.94;5033768;28;1877;-62
2023/06/05 11:42:39;;;;;;;;;;;;;;;30.95;25.24;100199.84;5034125;28;823;-63
2023/06/05 11:45:12;;;;;;;;;;;;;;;30.98;24.49;100203.69;5033726;28;926;-63
2023/06/05 11:47:39;;;;;;;;;;;;;;;30.98;25.05;100203.69;5033733;28;841;-62
2023/06/05 11:50:09;;;;;;;;;;;;;;;31.30;24.34;100213.19;5032324;28;1272;-63
2023/06/05 11:52:37;;;;;;;;;;;;;;;31.55;23.50;100210.28;5033650;28;851;-63
2023/06/05 11:55:15;;;;;;;;;;;;;;;31.56;22.46;100208.97;5032193;28;1323;-63
2023/06/05 11:57:48;;;;;;;;;;;;;;;32.23;22.58;100207.19;5033518;28;894;-62
2023/06/05 12:00:16;;;;;;;;;;;;;;;32.53;22.41;100212.69;5033331;28;1878;-63
2023/06/05 12:02:43;;;;;;;;;;;;;;;33.07;22.86;100219.25;5032533;28;879;-63
2023/06/05 12:05:09;;;;;;;;;;;;;;;32.61;20.94;100214.91;5033498;28;847;-63
2023/06/05 12:07:37;;;;;;;;;;;;;;;32.87;21.79;100211.31;5033260;28;811;-63
2023/06/05 12:10:04;;;;;;;;;;;;;;;33.35;20.82;100223.63;5033353;28;1026;-63
2023/06/05 12:12:31;;;;;;;;;;;;;;;33.06;19.52;100220.53;5031786;28;1431;-63
2023/06/05 12:14:57;;;;;;;;;;;;;;;33.18;19.80;100220.34;5033463;28;935;-63
2023/06/05 12:17:24;;;;;;;;;;;;;;;32.94;19.61;100222.84;5033177;28;878;-63
2023/06/05 12:19:54;;;;;;;;;;;;;;;33.13;20.24;100213.41;5033028;28;1910;-61
2023/06/05 12:22:20;;;;;;;;;;;;;;;33.61;19.07;100205.66;5033183;28;863;-63
2023/06/05 12:24:48;;;;;;;;;;;;;;;33.93;19.21;100205.44;5032980;28;832;-63
2023/06/05 12:27:15;;;;;;;;;;;;;;;34.05;18.33;100202.28;5032956;28;862;-63
2023/06/05 12:29:52;;;;;;;;;;;;;;;33.65;18.44;100206.09;5032861;28;855;-65
2023/06/05 12:32:25;;;;;;;;;;;;;;;33.21;17.79;100210.66;5032850;28;828;-63
2023/06/05 12:47:02;;;;;;;;;;;;;;;34.84;14.76;100200.28;5032893;28;685;-63
2023/06/05 12:49:29;;;;;;;;;;;;;;;34.44;14.24;100195.59;5032526;28;859;-62
2023/06/05 12:51:57;;;;;;;;;;;;;;;34.25;14.12;100195.81;5032529;28;831;-63
2023/06/05 12:54:24;;;;;;;;;;;;;;;34.19;15.10;100200.16;5032421;28;839;-63
2023/06/05 12:56:51;;;;;;;;;;;;;;;34.02;15.34;100197.69;5032297;28;879;-63
2023/06/05 12:59:17;;;;;;;;;;;;;;;34.02;16.06;100197.69;5032202;28;1961;-63
2023/06/05 13:01:44;;;;;;;;;;;;;;;34.25;16.19;100197.94;5032255;28;892;-64
2023/06/05 13:04:10;;;;;;;;;;;;;;;34.40;15.86;100186.56;5032213;28;863;-64
2023/06/05 13:06:37;;;;;;;;;;;;;;;34.41;16.70;100193.84;5032487;28;840;-63
2023/06/05 13:09:04;;;;;;;;;;;;;;;33.97;16.35;100185.03;5031939;28;1037;-62
2023/06/05 13:11:33;;;;;;;;;;;;;;;33.65;17.44;100180.28;5031897;28;1258;-64
2023/06/05 13:14:00;;;;;;;;;;;;;;;33.25;17.46;100191.06;5031706;28;899;-64
2023/06/05 13:16:27;;;;;;;;;;;;;;;32.90;18.40;100201.59;5032255;28;875;-64
2023/06/05 13:18:54;;;;;;;;;;;;;;;32.87;17.84;100197.75;5031885;28;1971;-63
2023/06/05 13:21:20;;;;;;;;;;;;;;;33.05;18.09;100186.72;5032008;28;891;-63
2023/06/05 13:23:47;;;;;;;;;;;;;;;32.53;18.85;100180.44;5031804;28;911;-63
2023/06/05 13:26:13;;;;;;;;;;;;;;;32.48;19.24;100181.31;5031935;28;898;-63
2023/06/05 13:28:40;;;;;;;;;;;;;;;32.42;19.66;100174.91;5031758;28;868;-63
2023/06/05 13:31:07;;;;;;;;;;;;;;;31.66;20.11;100181.53;5030567;28;861;-63
2023/06/05 13:33:33;;;;;;;;;;;;;;;31.45;20.29;100181.34;5031845;28;906;-63
2023/06/05 13:36:00;;;;;;;;;;;;;;;31.59;19.79;100195.69;5031689;28;847;-64
2023/06/05 13:38:27;;;;;;;;;;;;;;;31.62;20.14;100181.09;5031647;28;828;-64
2023/06/05 13:40:54;;;;;;;;;;;;;;;31.84;19.98;100179.22;5031533;28;1882;-64
2023/06/05 13:43:21;;;;;;;;;;;;;;;32.03;20.79;100188.56;5031586;28;876;-64